createdAt,value
2022-08-22T00:01:35.369Z,9.20
2022-08-22T00:02:56.361Z,5.85
2022-08-22T00:04:47.210Z,8.70
2022-08-22T00:07:19.983Z,7.53
2022-08-22T00:10:01.416Z,6.35
2022-08-22T00:12:40.371Z,5.15
2022-08-22T00:15:31.502Z,5.63
2022-08-22T00:18:18.145Z,8.25
2022-08-22T00:20:57.114Z,8.45
2022-08-22T00:23:33.331Z,7.90
2022-08-22T00:26:22.189Z,7.88
2022-08-22T00:29:00.095Z,11.30
2022-08-22T00:31:42.642Z,6.00
2022-08-22T00:34:09.623Z,5.75
2022-08-22T00:36:54.718Z,9.43
2022-08-22T00:39:46.155Z,7.90
2022-08-22T00:42:34.146Z,8.38
2022-08-22T00:45:18.004Z,8.13
2022-08-22T00:47:57.893Z,10.15
2022-08-22T00:50:44.614Z,7.60
2022-08-22T00:53:46.597Z,8.68
2022-08-22T00:56:25.564Z,9.35
2022-08-22T00:59:17.947Z,6.50
2022-08-22T01:02:09.871Z,7.07
2022-08-22T01:04:45.584Z,7.30
2022-08-22T01:07:50.059Z,9.57
2022-08-22T01:11:14.493Z,5.93
2022-08-22T01:13:47.107Z,5.75
2022-08-22T01:16:40.974Z,8.88
2022-08-22T01:19:35.522Z,8.88
2022-08-22T01:22:41.365Z,7.95
2022-08-22T01:25:55.754Z,9.43
2022-08-22T01:28:34.694Z,8.07
2022-08-22T01:31:22.465Z,8.10
2022-08-22T01:34:23.539Z,11.35
2022-08-22T01:37:01.930Z,15.75
2022-08-22T01:40:00.598Z,5.75
2022-08-22T01:42:59.807Z,8.98
2022-08-22T01:45:35.740Z,8.57
2022-08-22T01:48:23.817Z,8.82
2022-08-22T01:51:27.048Z,8.02
2022-08-22T01:53:59.181Z,6.05
2022-08-22T01:56:31.902Z,7.95
2022-08-22T01:59:17.634Z,7.82
2022-08-22T02:01:51.734Z,7.10
2022-08-22T02:04:45.409Z,4.85
2022-08-22T02:07:15.560Z,8.27
2022-08-22T02:09:53.574Z,7.85
2022-08-22T02:12:45.252Z,7.35
2022-08-22T02:15:15.122Z,10.48
2022-08-22T02:17:54.756Z,8.68
2022-08-22T02:20:31.879Z,12.23
2022-08-22T02:23:30.264Z,14.60
2022-08-22T02:26:02.787Z,8.73
2022-08-22T02:28:56.472Z,10.82
2022-08-22T02:31:33.816Z,12.77
2022-08-22T02:34:14.444Z,15.10
2022-08-22T02:36:45.826Z,12.13
2022-08-22T02:39:27.644Z,10.02
2022-08-22T02:42:01.258Z,9.15
2022-08-22T02:44:54.948Z,11.40
2022-08-22T02:47:30.423Z,10.18
2022-08-22T02:50:23.093Z,13.05
2022-08-22T02:53:02.519Z,9.48
2022-08-22T02:55:40.257Z,8.68
2022-08-22T02:58:21.127Z,10.65
2022-08-22T03:01:02.552Z,8.48
2022-08-22T03:03:36.234Z,10.90
2022-08-22T03:06:32.460Z,9.05
2022-08-22T03:09:08.345Z,15.25
2022-08-22T03:11:39.879Z,9.77
2022-08-22T03:14:18.740Z,9.95
2022-08-22T03:17:00.616Z,10.43
2022-08-22T03:20:07.068Z,9.10
2022-08-22T03:22:58.132Z,10.30
2022-08-22T03:25:31.401Z,8.77
2022-08-22T03:28:08.221Z,10.07
2022-08-22T03:30:40.806Z,9.13
2022-08-22T03:33:26.038Z,7.38
2022-08-22T03:36:25.852Z,9.75
2022-08-22T03:39:17.482Z,10.80
2022-08-22T03:41:57.099Z,10.63
2022-08-22T03:44:39.223Z,15.10
2022-08-22T03:47:18.203Z,14.60
2022-08-22T03:49:59.216Z,11.82
2022-08-22T03:53:01.596Z,17.98
2022-08-22T03:55:47.388Z,10.25
2022-08-22T03:58:27.929Z,10.68
2022-08-22T04:01:13.973Z,11.68
2022-08-22T04:07:03.005Z,9.35
2022-08-22T04:09:53.449Z,12.27
2022-08-22T04:13:01.419Z,8.68
2022-08-22T04:15:40.648Z,9.23
2022-08-22T04:18:45.109Z,11.02
2022-08-22T04:21:15.194Z,9.63
2022-08-22T04:24:14.875Z,8.98
2022-08-22T04:26:52.969Z,7.60
2022-08-22T04:29:32.495Z,8.73
2022-08-22T04:32:25.331Z,14.00
2022-08-22T04:35:16.515Z,11.32
2022-08-22T04:37:51.777Z,12.73
2022-08-22T04:40:28.910Z,8.20
2022-08-22T04:43:12.337Z,12.43
2022-08-22T04:45:52.212Z,10.13
2022-08-22T04:48:44.750Z,13.57
2022-08-22T04:51:22.086Z,11.98
2022-08-22T04:53:49.498Z,11.88
2022-08-22T04:56:49.914Z,10.18
2022-08-22T04:59:18.377Z,9.18
2022-08-22T05:01:58.399Z,10.60
2022-08-22T05:04:30.765Z,12.20
2022-08-22T05:07:04.059Z,9.73
2022-08-22T05:09:33.354Z,11.52
2022-08-22T05:12:12.214Z,13.70
2022-08-22T05:14:56.595Z,12.15
2022-08-22T05:17:29.064Z,12.57
2022-08-22T05:20:04.957Z,12.13
2022-08-22T05:22:36.771Z,12.25
2022-08-22T05:25:11.135Z,11.95
2022-08-22T05:27:56.351Z,7.80
2022-08-22T05:33:07.806Z,9.68
2022-08-22T05:35:39.923Z,14.90
2022-08-22T05:38:12.104Z,15.93
2022-08-22T05:40:39.241Z,16.73
2022-08-22T05:43:10.714Z,17.88
2022-08-22T05:45:40.530Z,17.55
2022-08-22T05:48:40.468Z,16.63
2022-08-22T05:51:24.963Z,18.88
2022-08-22T05:54:17.197Z,17.07
2022-08-22T05:56:53.385Z,18.73
2022-08-22T05:59:28.205Z,21.23
2022-08-22T06:02:04.294Z,18.67
2022-08-22T06:04:43.422Z,13.15
2022-08-22T06:07:41.922Z,19.35
2022-08-22T06:10:16.477Z,13.70
2022-08-22T06:13:24.385Z,12.82
2022-08-22T06:16:28.791Z,13.68
2022-08-22T06:18:58.051Z,13.18
2022-08-22T06:21:39.613Z,14.05
2022-08-22T06:24:13.238Z,14.20
2022-08-22T06:26:48.711Z,13.85
2022-08-22T06:29:43.528Z,9.60
2022-08-22T06:32:27.873Z,13.05
2022-08-22T06:35:20.656Z,13.15
2022-08-22T06:37:48.935Z,12.60
2022-08-22T06:40:17.764Z,14.55
2022-08-22T06:42:50.995Z,15.57
2022-08-22T06:45:26.666Z,13.27
2022-08-22T06:48:06.004Z,13.10
2022-08-22T06:50:38.853Z,13.52
2022-08-22T06:53:14.645Z,11.55
2022-08-22T06:55:47.738Z,11.18
2022-08-22T06:58:26.886Z,12.40
2022-08-22T07:01:12.336Z,16.13
2022-08-22T07:04:07.886Z,12.55
2022-08-22T07:06:45.046Z,13.05
2022-08-22T07:09:32.598Z,10.90
2022-08-22T07:12:03.141Z,9.45
2022-08-22T07:14:40.973Z,12.35
2022-08-22T07:17:14.841Z,12.77
2022-08-22T07:19:56.370Z,11.80
2022-08-22T07:22:28.515Z,9.90
2022-08-22T07:25:16.007Z,13.45
2022-08-22T07:27:55.461Z,12.77
2022-08-22T07:30:27.533Z,10.20
2022-08-22T07:33:25.158Z,11.75
2022-08-22T07:36:00.729Z,11.95
2022-08-22T07:38:36.659Z,11.93
2022-08-22T07:41:32.847Z,12.68
2022-08-22T07:44:16.883Z,11.60
2022-08-22T07:47:08.500Z,10.85
2022-08-22T07:49:53.119Z,13.52
2022-08-22T07:52:24.340Z,12.93
2022-08-22T07:55:01.529Z,11.15
2022-08-22T07:57:42.527Z,12.68
2022-08-22T08:00:17.008Z,9.82
2022-08-22T08:02:49.553Z,7.95
2022-08-22T08:05:17.599Z,10.63
2022-08-22T08:07:46.078Z,8.73
2022-08-22T08:10:19.440Z,9.57
2022-08-22T08:12:54.159Z,12.20
2022-08-22T08:15:32.375Z,14.07
2022-08-22T08:18:05.657Z,11.15
2022-08-22T08:20:36.301Z,11.10
2022-08-22T08:23:06.932Z,7.40
2022-08-22T08:25:53.408Z,11.65
2022-08-22T08:28:38.137Z,11.02
2022-08-22T08:31:16.226Z,11.65
2022-08-22T08:33:47.654Z,11.15
2022-08-22T08:36:14.817Z,13.15
2022-08-22T08:39:10.206Z,10.75
2022-08-22T08:42:11.711Z,10.32
2022-08-22T08:44:54.363Z,11.20
2022-08-22T08:47:40.340Z,9.45
2022-08-22T08:50:50.357Z,8.13
2022-08-22T08:53:46.778Z,8.30
2022-08-22T08:56:28.200Z,10.52
2022-08-22T08:58:55.280Z,10.40
2022-08-22T09:01:40.897Z,9.52
2022-08-22T09:04:54.916Z,10.55
2022-08-22T09:08:01.947Z,7.57
2022-08-22T09:10:39.537Z,9.07
2022-08-22T09:13:18.343Z,9.95
2022-08-22T09:19:14.458Z,11.35
2022-08-22T09:22:23.321Z,8.80
2022-08-22T09:25:06.171Z,8.68
2022-08-22T09:27:59.920Z,7.53
2022-08-22T09:30:57.144Z,9.93
2022-08-22T09:33:33.738Z,7.60
2022-08-22T09:36:14.265Z,7.07
2022-08-22T09:38:53.408Z,12.13
2022-08-22T09:41:30.374Z,6.82
2022-08-22T09:44:24.714Z,10.27
2022-08-22T09:47:04.106Z,8.38
2022-08-22T09:50:12.367Z,6.47
2022-08-22T09:52:57.994Z,9.32
2022-08-22T09:55:38.205Z,6.97
2022-08-22T09:58:12.552Z,7.18
2022-08-22T10:00:47.205Z,6.30
2022-08-22T10:03:50.676Z,8.05
2022-08-22T10:06:30.375Z,6.05
2022-08-22T10:09:37.092Z,7.68
2022-08-22T10:12:13.058Z,9.63
2022-08-22T10:15:06.753Z,5.68
2022-08-22T10:17:41.151Z,7.95
2022-08-22T10:20:49.809Z,4.55
2022-08-22T10:23:25.194Z,8.50
2022-08-22T10:26:22.901Z,5.75
2022-08-22T10:29:43.996Z,6.57
2022-08-22T10:32:27.605Z,6.65
2022-08-22T10:35:00.176Z,6.65
2022-08-22T10:37:59.408Z,4.88
2022-08-22T10:40:34.311Z,6.88
2022-08-22T10:43:08.302Z,5.03
2022-08-22T10:45:41.091Z,8.43
2022-08-22T10:48:11.340Z,8.43
2022-08-22T10:50:57.639Z,5.03
2022-08-22T10:53:30.506Z,5.90
2022-08-22T10:56:22.027Z,5.05
2022-08-22T10:58:58.163Z,8.82
2022-08-22T11:01:37.515Z,5.10
2022-08-22T11:04:18.101Z,6.80
2022-08-22T11:06:54.783Z,7.28
2022-08-22T11:09:34.442Z,5.20
2022-08-22T11:12:04.666Z,5.00
2022-08-22T11:15:09.194Z,4.75
2022-08-22T11:18:21.662Z,5.88
2022-08-22T11:21:07.240Z,3.38
2022-08-22T11:23:53.605Z,3.67
2022-08-22T11:26:47.484Z,4.60
2022-08-22T11:29:37.810Z,3.45
2022-08-22T11:32:17.143Z,5.80
2022-08-22T11:35:32.398Z,8.05
2022-08-22T11:38:00.902Z,4.15
2022-08-22T11:40:49.566Z,4.30
2022-08-22T11:43:58.245Z,3.58
2022-08-22T11:46:48.305Z,4.40
2022-08-22T11:49:31.745Z,5.80
2022-08-22T11:52:06.415Z,5.10
2022-08-22T11:54:51.804Z,3.35
2022-08-22T11:57:46.303Z,5.28
2022-08-22T12:00:28.135Z,3.92
2022-08-22T12:03:23.222Z,5.38
2022-08-22T12:06:37.361Z,3.83
2022-08-22T12:09:26.383Z,4.40
2022-08-22T12:12:19.093Z,5.15
2022-08-22T12:15:25.844Z,5.38
2022-08-22T12:18:26.730Z,6.70
2022-08-22T12:21:25.005Z,4.78
2022-08-22T12:23:52.058Z,6.28
2022-08-22T12:26:40.660Z,4.70
2022-08-22T12:29:34.170Z,5.50
2022-08-22T12:33:01.087Z,6.13
2022-08-22T12:35:30.271Z,6.25
2022-08-22T12:38:28.263Z,4.20
2022-08-22T12:41:34.658Z,5.90
2022-08-22T12:44:16.987Z,7.68
2022-08-22T12:47:04.274Z,8.13
2022-08-22T12:50:06.864Z,6.00
2022-08-22T12:52:55.172Z,21.35
2022-08-22T12:55:47.643Z,4.28
2022-08-22T12:58:51.376Z,5.97
2022-08-22T13:01:19.339Z,4.22
2022-08-22T13:04:03.464Z,3.90
2022-08-22T13:06:36.591Z,3.42
2022-08-22T13:09:19.898Z,4.00
2022-08-22T13:12:02.457Z,4.50
2022-08-22T13:14:34.066Z,3.67
2022-08-22T13:17:23.921Z,4.10
2022-08-22T13:20:09.944Z,5.15
2022-08-22T13:25:26.603Z,4.53
2022-08-22T13:28:00.239Z,2.47
2022-08-22T13:30:37.670Z,7.45
2022-08-22T13:33:14.647Z,4.70
2022-08-22T13:35:55.793Z,4.97
2022-08-22T13:38:48.283Z,5.45
2022-08-22T13:41:32.625Z,3.65
2022-08-22T13:44:06.058Z,4.45
2022-08-22T13:46:35.561Z,6.35
2022-08-22T13:49:07.847Z,3.90
2022-08-22T13:51:41.237Z,5.63
2022-08-22T13:54:46.823Z,8.00
2022-08-22T13:57:42.044Z,4.63
2022-08-22T14:00:57.823Z,4.90
2022-08-22T14:03:57.680Z,5.90
2022-08-22T14:06:46.416Z,4.63
2022-08-22T14:09:32.524Z,6.65
2022-08-22T14:12:14.853Z,4.00
2022-08-22T14:14:47.291Z,3.65
2022-08-22T14:17:22.558Z,3.28
2022-08-22T14:20:01.798Z,4.95
2022-08-22T14:22:35.744Z,4.45
2022-08-22T14:25:21.386Z,3.78
2022-08-22T14:27:52.650Z,3.22
2022-08-22T14:30:24.533Z,3.30
2022-08-22T14:33:09.204Z,4.10
2022-08-22T14:35:53.081Z,4.30
2022-08-22T14:38:49.677Z,6.47
2022-08-22T14:41:52.420Z,4.00
2022-08-22T14:44:26.619Z,5.82
2022-08-22T14:47:04.369Z,5.13
2022-08-22T14:49:58.923Z,5.80
2022-08-22T14:52:38.007Z,2.78
2022-08-22T14:55:16.160Z,6.38
2022-08-22T14:57:57.908Z,5.20
2022-08-22T15:00:37.984Z,3.95
2022-08-22T15:03:23.440Z,3.13
2022-08-22T15:05:52.699Z,4.20
2022-08-22T15:08:33.434Z,3.92
2022-08-22T15:11:21.930Z,5.18
2022-08-22T15:14:04.287Z,3.90
2022-08-22T15:17:05.819Z,2.38
2022-08-22T15:19:41.462Z,4.95
2022-08-22T15:22:27.742Z,5.63
2022-08-22T15:25:13.480Z,6.72
2022-08-22T15:28:14.385Z,4.03
2022-08-22T15:31:09.454Z,3.75
2022-08-22T15:33:43.259Z,3.00
2022-08-22T15:36:21.041Z,4.17
2022-08-22T15:38:53.391Z,5.55
2022-08-22T15:41:36.354Z,3.80
2022-08-22T15:44:32.536Z,4.55
2022-08-22T15:47:11.757Z,4.75
2022-08-22T15:49:58.299Z,5.38
2022-08-22T15:52:31.919Z,5.03
2022-08-22T15:55:26.751Z,4.78
2022-08-22T15:58:23.106Z,3.08
2022-08-22T16:01:20.552Z,3.45
2022-08-22T16:03:58.352Z,4.07
2022-08-22T16:06:52.630Z,5.15
2022-08-22T16:09:29.487Z,6.10
2022-08-22T16:11:58.927Z,8.07
2022-08-22T16:14:35.280Z,3.10
2022-08-22T16:17:28.058Z,4.43
2022-08-22T16:20:20.034Z,3.80
2022-08-22T16:22:56.726Z,2.85
2022-08-22T16:25:45.560Z,3.97
2022-08-22T16:28:56.875Z,4.75
2022-08-22T16:31:29.209Z,5.82
2022-08-22T16:33:59.500Z,4.90
2022-08-22T16:37:04.139Z,3.78
2022-08-22T16:39:48.547Z,4.85
2022-08-22T16:42:15.551Z,7.63
2022-08-22T16:44:47.961Z,5.35
2022-08-22T16:47:17.460Z,3.53
2022-08-22T16:49:50.479Z,4.22
2022-08-22T16:52:26.583Z,4.75
2022-08-22T16:54:55.812Z,5.90
2022-08-22T16:57:59.291Z,8.10
2022-08-22T17:00:37.853Z,7.63
2022-08-22T17:03:29.863Z,6.28
2022-08-22T17:06:24.090Z,5.80
2022-08-22T17:09:28.379Z,5.00
2022-08-22T17:12:43.582Z,4.38
2022-08-22T17:15:49.600Z,3.90
2022-08-22T17:18:25.737Z,3.92
2022-08-22T17:21:10.195Z,5.82
2022-08-22T17:23:52.419Z,5.07
2022-08-22T17:26:38.884Z,5.03
2022-08-22T17:29:16.013Z,8.10
2022-08-22T17:31:49.131Z,5.15
2022-08-22T17:34:25.576Z,8.02
2022-08-22T17:37:21.679Z,6.32
2022-08-22T17:40:19.646Z,4.85
2022-08-22T17:43:00.672Z,7.05
2022-08-22T17:45:54.341Z,7.88
2022-08-22T17:48:26.295Z,6.40
2022-08-22T17:51:28.355Z,7.18
2022-08-22T17:54:03.098Z,5.72
2022-08-22T17:56:42.525Z,6.07
2022-08-22T17:59:19.063Z,9.15
2022-08-22T18:01:57.423Z,4.70
2022-08-22T18:04:54.262Z,3.47
2022-08-22T18:08:00.064Z,7.03
2022-08-22T18:10:47.141Z,5.40
2022-08-22T18:13:39.080Z,5.07
2022-08-22T18:16:29.418Z,5.57
2022-08-22T18:19:08.587Z,6.07
2022-08-22T18:21:44.503Z,5.63
2022-08-22T18:24:12.140Z,4.63
2022-08-22T18:26:42.580Z,6.60
2022-08-22T18:29:26.833Z,7.97
2022-08-22T18:32:03.064Z,8.30
2022-08-22T18:35:10.702Z,8.82
2022-08-22T18:37:44.287Z,13.93
2022-08-22T18:40:32.084Z,10.80
2022-08-22T18:43:14.239Z,6.60
2022-08-22T18:45:47.786Z,6.57
2022-08-22T18:48:28.114Z,7.50
2022-08-22T18:51:31.531Z,4.78
2022-08-22T18:56:33.231Z,6.47
2022-08-22T18:59:15.954Z,4.03
2022-08-22T19:01:52.394Z,6.78
2022-08-22T19:04:37.822Z,6.90
2022-08-22T19:07:35.696Z,7.97
2022-08-22T19:10:27.814Z,6.35
2022-08-22T19:13:27.456Z,10.98
2022-08-22T19:16:01.424Z,6.32
2022-08-22T19:18:34.753Z,5.25
2022-08-22T19:21:44.993Z,6.00
2022-08-22T19:24:27.400Z,8.13
2022-08-22T19:27:19.635Z,5.40
2022-08-22T19:29:46.972Z,4.43
2022-08-22T19:32:44.992Z,5.88
2022-08-22T19:35:27.763Z,5.15
2022-08-22T19:38:03.297Z,6.28
2022-08-22T19:40:45.691Z,5.00
2022-08-22T19:43:41.172Z,5.63
2022-08-22T19:46:13.006Z,6.22
2022-08-22T19:48:52.786Z,6.82
2022-08-22T19:51:20.574Z,4.82
2022-08-22T19:54:21.823Z,3.83
2022-08-22T19:57:04.622Z,4.32
2022-08-22T20:00:00.572Z,6.70
2022-08-22T20:02:39.118Z,4.43
2022-08-22T20:05:11.573Z,5.78
2022-08-22T20:07:53.208Z,5.07
2022-08-22T20:10:42.753Z,11.73
2022-08-22T20:13:20.408Z,6.15
2022-08-22T20:16:07.255Z,6.57
2022-08-22T20:19:07.680Z,6.22
2022-08-22T20:21:48.420Z,6.97
2022-08-22T20:24:29.894Z,5.40
2022-08-22T20:27:15.604Z,4.70
2022-08-22T20:29:51.869Z,5.10
2022-08-22T20:32:23.116Z,3.05
2022-08-22T20:34:59.175Z,6.55
2022-08-22T20:38:05.329Z,6.72
2022-08-22T20:41:11.076Z,8.80
2022-08-22T20:43:45.569Z,4.80
2022-08-22T20:46:21.244Z,6.95
2022-08-22T20:48:54.526Z,5.13
2022-08-22T20:51:25.644Z,7.13
2022-08-22T20:53:56.259Z,6.07
2022-08-22T20:56:33.682Z,7.75
2022-08-22T20:59:12.707Z,6.15
2022-08-22T21:01:40.474Z,9.63
2022-08-22T21:04:07.695Z,7.65
2022-08-22T21:06:39.262Z,4.82
2022-08-22T21:09:36.771Z,5.63
2022-08-22T21:12:09.155Z,8.38
2022-08-22T21:14:44.364Z,9.32
2022-08-22T21:17:39.306Z,5.00
2022-08-22T21:20:25.221Z,7.40
2022-08-22T21:22:56.691Z,5.65
2022-08-22T21:25:23.860Z,5.30
2022-08-22T21:27:53.575Z,6.30
2022-08-22T21:30:27.431Z,9.23
2022-08-22T21:32:56.354Z,5.25
2022-08-22T21:35:26.291Z,4.95
2022-08-22T21:37:53.559Z,6.85
2022-08-22T21:40:30.046Z,4.50
2022-08-22T21:43:10.548Z,4.65
2022-08-22T21:45:41.514Z,8.82
2022-08-22T21:48:30.418Z,5.95
2022-08-22T21:51:17.629Z,4.93
2022-08-22T21:53:44.879Z,8.50
2022-08-22T21:56:14.820Z,5.97
2022-08-22T21:58:42.686Z,5.53
2022-08-22T22:01:31.803Z,5.28
2022-08-22T22:04:00.304Z,6.00
2022-08-22T22:06:28.016Z,3.92
2022-08-22T22:08:55.444Z,6.35
2022-08-22T22:11:22.523Z,4.43
2022-08-22T22:13:49.673Z,6.40
2022-08-22T22:16:23.906Z,6.40
2022-08-22T22:18:51.276Z,5.27
2022-08-22T22:21:18.418Z,9.80
2022-08-22T22:23:45.680Z,11.00
2022-08-22T22:26:13.655Z,5.53
2022-08-22T22:28:47.292Z,7.13
2022-08-22T22:31:16.735Z,7.30
2022-08-22T22:33:44.161Z,5.30
2022-08-22T22:36:16.249Z,4.85
2022-08-22T22:38:43.583Z,5.30
2022-08-22T22:41:11.697Z,5.53
2022-08-22T22:43:38.837Z,5.00
2022-08-22T22:46:06.549Z,9.50
2022-08-22T22:48:33.846Z,7.80
2022-08-22T22:51:07.378Z,7.25
2022-08-22T22:53:40.189Z,4.88
2022-08-22T22:56:12.473Z,4.10
2022-08-22T22:58:39.904Z,9.30
2022-08-22T23:01:20.486Z,5.97
2022-08-22T23:03:48.648Z,8.55
2022-08-22T23:06:19.011Z,9.30
2022-08-22T23:08:46.345Z,5.35
2022-08-22T23:11:17.417Z,6.15
2022-08-22T23:13:44.487Z,6.03
2022-08-22T23:16:14.236Z,6.57
2022-08-22T23:18:42.057Z,7.15
2022-08-22T23:21:17.653Z,8.40
2022-08-22T23:23:45.254Z,5.13
2022-08-22T23:26:12.767Z,6.07
2022-08-22T23:28:39.917Z,7.28
2022-08-22T23:31:26.362Z,8.75
2022-08-22T23:33:54.105Z,6.13
2022-08-22T23:36:23.666Z,5.32
2022-08-22T23:38:52.062Z,7.68
2022-08-22T23:41:21.595Z,5.35
2022-08-22T23:43:53.559Z,8.85
2022-08-22T23:46:23.893Z,4.65
2022-08-22T23:48:51.549Z,7.35
2022-08-22T23:51:22.316Z,7.45
2022-08-22T23:53:51.451Z,7.38
2022-08-22T23:56:38.983Z,6.68
2022-08-22T23:59:11.710Z,5.78
